Time;durP1;ratioP1;P1;durP2;ratioP2;P2;SDS_P1;SDS_P2;PMS_P1;PMS_P2;Temp;Humidity;BMP_temperature;BMP_pressure;BME280_temperature;BME280_humidity;BME280_pressure;Samples;Min_cycle;Max_cycle;Signal;HPM_P1;HPM_P2
2023/10/05 00:03:31;;;;;;;;;;;;;;;20.46;30.51;98658.06;5018541;28;905;-77
2023/10/05 00:06:16;;;;;;;;;;;;;;;20.54;30.37;98656.81;5002742;28;1644;-77
2023/10/05 00:08:47;;;;;;;;;;;;;;;20.81;30.03;98656.88;5065697;28;1372;-77
2023/10/05 00:11:22;;;;;;;;;;;;;;;20.64;30.08;98655.09;5055020;28;1906;-77
2023/10/05 00:14:04;;;;;;;;;;;;;;;20.54;30.51;98656.81;5023079;28;1122;-77
2023/10/05 00:16:36;;;;;;;;;;;;;;;20.93;29.72;98650.63;4995269;28;1485;-77
2023/10/05 00:19:11;;;;;;;;;;;;;;;21.11;29.46;98655.25;4962992;28;1074;-78
2023/10/05 00:21:48;;;;;;;;;;;;;;;20.67;30.18;98657.84;4995763;28;1144;-77
2023/10/05 00:24:15;;;;;;;;;;;;;;;21.01;29.78;98657.00;4995577;28;951;-78
2023/10/05 00:26:43;;;;;;;;;;;;;;;20.83;30.04;98662.09;4995645;28;1609;-77
2023/10/05 00:29:18;;;;;;;;;;;;;;;20.95;29.92;98653.06;4995438;28;1028;-77
2023/10/05 00:31:47;;;;;;;;;;;;;;;20.87;29.90;98651.53;4980690;28;1911;-77
2023/10/05 00:34:21;;;;;;;;;;;;;;;20.91;29.94;98652.31;4981799;28;953;-78
2023/10/05 00:36:50;;;;;;;;;;;;;;;20.73;29.99;98647.69;5021847;28;1424;-77
2023/10/05 00:39:19;;;;;;;;;;;;;;;20.75;30.32;98652.91;5031432;28;1354;-77
2023/10/05 00:41:45;;;;;;;;;;;;;;;20.58;30.39;98657.56;5025055;28;932;-77
2023/10/05 00:44:12;;;;;;;;;;;;;;;20.51;30.29;98663.28;5055398;28;937;-77
2023/10/05 00:46:39;;;;;;;;;;;;;;;20.77;29.90;98659.72;5065254;28;1403;-77
2023/10/05 00:49:16;;;;;;;;;;;;;;;20.53;30.57;98655.22;5083269;28;1094;-77
2023/10/05 00:51:44;;;;;;;;;;;;;;;20.54;30.35;98666.09;5101191;28;1913;-77
2023/10/05 00:54:18;;;;;;;;;;;;;;;20.45;30.49;98664.97;5083077;28;1164;-77
2023/10/05 00:56:45;;;;;;;;;;;;;;;20.96;29.67;98657.50;5080004;28;1335;-77
2023/10/05 00:59:12;;;;;;;;;;;;;;;20.78;30.20;98667.03;5079323;28;1281;-77
2023/10/05 01:04:28;;;;;;;;;;;;;;;20.74;30.26;98660.59;5062672;28;1193;-77
2023/10/05 01:07:00;;;;;;;;;;;;;;;20.69;30.21;98652.59;5055059;28;1524;-77
2023/10/05 01:14:53;;;;;;;;;;;;;;;20.62;30.60;98652.66;5061985;28;962;-77
2023/10/05 01:17:22;;;;;;;;;;;;;;;20.65;30.57;98646.16;5066833;28;1440;-77
2023/10/05 01:19:53;;;;;;;;;;;;;;;20.87;30.13;98648.72;5058076;28;1081;-77
2023/10/05 01:22:21;;;;;;;;;;;;;;;20.79;30.39;98642.38;5057871;28;1276;-77
2023/10/05 01:24:49;;;;;;;;;;;;;;;20.85;30.17;98640.66;5057612;28;955;-77
2023/10/05 01:27:15;;;;;;;;;;;;;;;20.79;30.03;98642.38;5034098;28;1389;-77
2023/10/05 01:29:42;;;;;;;;;;;;;;;20.66;30.43;98653.41;5018047;28;1119;-77
2023/10/05 01:32:07;;;;;;;;;;;;;;;20.80;29.99;98647.59;5018198;28;1922;-77
2023/10/05 01:34:33;;;;;;;;;;;;;;;20.69;30.05;98640.47;5017847;28;1012;-77
2023/10/05 01:36:58;;;;;;;;;;;;;;;20.77;30.25;98648.41;5009017;28;1447;-77
2023/10/05 01:39:26;;;;;;;;;;;;;;;20.83;30.00;98660.09;5020965;28;1197;-77
2023/10/05 01:41:51;;;;;;;;;;;;;;;20.73;30.06;98647.69;5037257;28;941;-77
2023/10/05 01:44:17;;;;;;;;;;;;;;;20.61;30.53;98655.91;5053805;28;1183;-77
2023/10/05 01:46:44;;;;;;;;;;;;;;;20.60;30.32;98649.47;5036667;28;1588;-77
2023/10/05 01:49:09;;;;;;;;;;;;;;;20.61;30.61;98650.25;5036983;28;1160;-77
2023/10/05 01:51:35;;;;;;;;;;;;;;;20.55;30.55;98644.28;5001340;28;1882;-76
2023/10/05 01:57:01;;;;;;;;;;;;;;;20.68;30.37;98658.66;4977324;28;1327;-77
2023/10/05 01:59:27;;;;;;;;;;;;;;;20.81;30.19;98654.84;5002240;28;1273;-77
2023/10/05 02:01:54;;;;;;;;;;;;;;;20.93;29.87;98661.94;5017321;28;1218;-77
2023/10/05 02:04:22;;;;;;;;;;;;;;;20.76;30.25;98658.13;5000916;28;1122;-77
2023/10/05 02:06:49;;;;;;;;;;;;;;;20.76;30.22;98663.78;5016415;28;1329;-77
2023/10/05 02:09:19;;;;;;;;;;;;;;;20.79;30.12;98665.78;5000785;28;1123;-77
2023/10/05 02:11:48;;;;;;;;;;;;;;;20.68;30.25;98673.63;5001159;28;1895;-77
2023/10/05 02:14:16;;;;;;;;;;;;;;;20.91;30.10;98669.28;5017347;28;965;-77
2023/10/05 02:16:41;;;;;;;;;;;;;;;20.97;29.82;98664.75;4996431;28;1537;-77
2023/10/05 02:19:08;;;;;;;;;;;;;;;20.99;29.75;98665.94;4997668;28;1233;-77
2023/10/05 02:21:36;;;;;;;;;;;;;;;20.88;30.07;98670.13;4999505;28;1069;-77
2023/10/05 02:24:25;;;;;;;;;;;;;;;20.96;29.73;98663.16;5033346;28;952;-77
2023/10/05 02:29:27;;;;;;;;;;;;;;;20.62;30.27;98669.63;5051465;28;1254;-77
2023/10/05 02:34:42;;;;;;;;;;;;;;;20.62;30.33;98669.63;5104155;28;995;-77
2023/10/05 02:37:10;;;;;;;;;;;;;;;20.68;30.54;98667.16;5074774;28;1339;-77
2023/10/05 02:39:37;;;;;;;;;;;;;;;20.57;30.49;98667.25;5061169;28;1050;-77
2023/10/05 02:42:11;;;;;;;;;;;;;;;20.63;30.16;98659.13;5061400;28;1115;-77
2023/10/05 02:44:38;;;;;;;;;;;;;;;20.76;30.25;98663.78;5044580;28;1324;-76
2023/10/05 02:47:08;;;;;;;;;;;;;;;20.61;30.36;98668.03;5029362;28;1410;-77
2023/10/05 02:49:39;;;;;;;;;;;;;;;20.50;30.47;98673.00;5057808;28;1372;-77
2023/10/05 02:52:06;;;;;;;;;;;;;;;20.76;30.05;98668.66;5040551;28;1895;-76
2023/10/05 02:54:31;;;;;;;;;;;;;;;20.76;30.05;98669.44;5022569;28;1390;-77
2023/10/05 02:56:57;;;;;;;;;;;;;;;20.89;29.58;98671.75;5039432;28;1119;-77
2023/10/05 02:59:26;;;;;;;;;;;;;;;20.97;29.89;98684.53;5039207;28;1455;-77
2023/10/05 03:01:53;;;;;;;;;;;;;;;20.61;30.18;98679.34;5023133;28;1001;-77
2023/10/05 03:04:21;;;;;;;;;;;;;;;20.50;30.24;98684.31;5022842;28;1348;-77
2023/10/05 03:06:49;;;;;;;;;;;;;;;20.58;30.35;98680.19;5055710;28;1399;-77
2023/10/05 03:09:14;;;;;;;;;;;;;;;20.60;30.13;98676.94;5053325;28;1567;-77
2023/10/05 03:11:40;;;;;;;;;;;;;;;20.61;30.07;98679.34;5053966;28;1901;-77
2023/10/05 03:14:11;;;;;;;;;;;;;;;20.69;29.78;98675.22;5074232;28;1454;-77
2023/10/05 03:16:46;;;;;;;;;;;;;;;20.42;30.21;98677.13;5040118;28;1108;-77
2023/10/05 03:19:15;;;;;;;;;;;;;;;20.56;30.07;98676.97;5055821;28;1417;-77
2023/10/05 03:21:41;;;;;;;;;;;;;;;20.54;30.20;98680.22;5056070;28;1277;-77
2023/10/05 03:24:13;;;;;;;;;;;;;;;20.74;29.85;98671.91;5073389;28;1126;-77
2023/10/05 03:26:42;;;;;;;;;;;;;;;20.67;30.13;98674.81;5056255;28;1134;-77
2023/10/05 03:29:11;;;;;;;;;;;;;;;20.95;29.70;98681.34;5072384;28;1395;-77
2023/10/05 03:32:04;;;;;;;;;;;;;;;20.69;30.17;98683.69;5073651;28;1968;-77
2023/10/05 03:34:32;;;;;;;;;;;;;;;20.63;30.11;98682.56;5056464;28;1153;-77
2023/10/05 03:36:59;;;;;;;;;;;;;;;20.58;30.12;98680.19;5073425;28;862;-77
2023/10/05 03:39:28;;;;;;;;;;;;;;;20.54;30.23;98690.72;5087659;28;1420;-77
2023/10/05 03:41:54;;;;;;;;;;;;;;;20.59;30.30;98684.63;5075743;28;1217;-77
2023/10/05 03:44:21;;;;;;;;;;;;;;;20.70;30.16;98682.47;5092963;28;1319;-77
2023/10/05 03:46:46;;;;;;;;;;;;;;;20.66;30.23;98693.00;5093250;28;1204;-77
2023/10/05 03:49:15;;;;;;;;;;;;;;;20.70;30.13;98681.66;5062379;28;1361;-78
2023/10/05 03:51:49;;;;;;;;;;;;;;;20.64;30.19;98683.34;5056077;28;1968;-77
2023/10/05 03:54:18;;;;;;;;;;;;;;;20.90;29.52;98695.97;5055777;28;1148;-77
2023/10/05 03:56:50;;;;;;;;;;;;;;;20.91;29.79;98691.91;5072771;28;1106;-77
2023/10/05 03:59:17;;;;;;;;;;;;;;;20.91;29.50;98687.03;5055617;28;1753;-77
2023/10/05 04:01:48;;;;;;;;;;;;;;;20.87;29.63;98691.94;5089770;28;892;-77
2023/10/05 04:04:15;;;;;;;;;;;;;;;20.98;29.59;98694.63;5044092;28;1886;-77
2023/10/05 04:06:42;;;;;;;;;;;;;;;20.62;30.03;98688.63;5035334;28;1394;-77
2023/10/05 04:09:15;;;;;;;;;;;;;;;20.71;29.97;98689.72;5017823;28;1257;-76
2023/10/05 04:11:41;;;;;;;;;;;;;;;20.43;30.53;98687.19;5051992;28;1882;-77
2023/10/05 04:14:08;;;;;;;;;;;;;;;20.63;30.06;98693.88;5014835;28;1114;-77
2023/10/05 04:16:34;;;;;;;;;;;;;;;20.66;30.08;98690.19;5014917;28;885;-77
2023/10/05 04:18:59;;;;;;;;;;;;;;;20.69;30.23;98683.69;5014712;28;1170;-77
2023/10/05 04:21:25;;;;;;;;;;;;;;;20.69;30.01;98697.81;5015201;28;1368;-77
2023/10/05 04:23:52;;;;;;;;;;;;;;;20.74;30.14;98697.38;5014894;28;918;-77
2023/10/05 04:26:18;;;;;;;;;;;;;;;20.62;30.44;98697.09;5015179;28;1099;-77
2023/10/05 04:28:52;;;;;;;;;;;;;;;20.75;30.42;98695.34;5014566;28;1096;-76
2023/10/05 04:31:22;;;;;;;;;;;;;;;20.67;30.43;98703.09;5031171;28;1918;-77
2023/10/05 04:33:49;;;;;;;;;;;;;;;20.56;30.91;98699.59;5014289;28;1025;-78
2023/10/05 04:36:16;;;;;;;;;;;;;;;20.63;30.65;98699.53;5032934;28;892;-78
2023/10/05 04:38:43;;;;;;;;;;;;;;;20.61;30.56;98701.94;5034198;28;1082;-77
2023/10/05 04:41:12;;;;;;;;;;;;;;;20.71;30.48;98701.03;5018574;28;904;-77
2023/10/05 04:43:38;;;;;;;;;;;;;;;20.69;30.53;98700.66;5017366;28;715;-78
2023/10/05 04:46:08;;;;;;;;;;;;;;;20.66;30.54;98709.97;5000710;28;1355;-78
2023/10/05 04:48:34;;;;;;;;;;;;;;;20.95;29.97;98709.63;5014202;28;883;-79
2023/10/05 04:51:01;;;;;;;;;;;;;;;20.69;30.48;98709.13;5014316;28;1970;-78
2023/10/05 04:53:27;;;;;;;;;;;;;;;20.70;30.75;98716.41;5006219;28;1053;-78
2023/10/05 04:56:00;;;;;;;;;;;;;;;20.96;30.32;98711.25;5014822;28;948;-79
2023/10/05 04:58:52;;;;;;;;;;;;;;;20.73;30.49;98715.56;5014160;28;1034;-78
2023/10/05 05:01:29;;;;;;;;;;;;;;;20.73;30.40;98711.94;5011701;28;1308;-79
2023/10/05 05:03:56;;;;;;;;;;;;;;;20.74;30.64;98710.72;4978741;28;907;-79
2023/10/05 05:06:27;;;;;;;;;;;;;;;21.08;30.13;98719.94;4979131;28;891;-79
2023/10/05 05:08:53;;;;;;;;;;;;;;;20.86;30.50;98726.31;4995182;28;1080;-79
2023/10/05 05:11:19;;;;;;;;;;;;;;;20.97;30.07;98716.47;4997786;28;1993;-78
2023/10/05 05:13:46;;;;;;;;;;;;;;;20.65;30.80;98725.34;5014151;28;1004;-78
2023/10/05 05:16:12;;;;;;;;;;;;;;;20.56;30.79;98722.19;5014697;28;911;-79
2023/10/05 05:18:41;;;;;;;;;;;;;;;20.48;31.02;98726.34;4997419;28;1245;-79
2023/10/05 05:21:11;;;;;;;;;;;;;;;20.74;30.67;98734.13;5005896;28;1231;-78
2023/10/05 05:23:37;;;;;;;;;;;;;;;20.73;30.93;98728.91;5057444;28;802;-79
2023/10/05 05:26:03;;;;;;;;;;;;;;;20.89;30.20;98734.78;5061394;28;862;-79
2023/10/05 05:28:29;;;;;;;;;;;;;;;20.73;30.78;98737.38;5061845;28;878;-79
2023/10/05 05:30:55;;;;;;;;;;;;;;;20.66;30.89;98746.72;5062519;28;1952;-78
2023/10/05 05:33:21;;;;;;;;;;;;;;;20.68;30.91;98735.03;5044984;28;1127;-78
2023/10/05 05:35:46;;;;;;;;;;;;;;;20.70;31.00;98744.69;5061854;28;1218;-78
2023/10/05 05:38:12;;;;;;;;;;;;;;;20.92;30.60;98750.06;5061696;28;1282;-79
2023/10/05 05:40:38;;;;;;;;;;;;;;;20.66;30.92;98758.03;5045284;28;1167;-79
2023/10/05 05:43:11;;;;;;;;;;;;;;;20.86;30.62;98757.44;5061682;28;884;-79
2023/10/05 05:45:42;;;;;;;;;;;;;;;20.62;31.10;98759.31;5079276;28;795;-78
2023/10/05 05:48:09;;;;;;;;;;;;;;;20.90;30.61;98759.00;5078054;28;1249;-79
2023/10/05 05:50:39;;;;;;;;;;;;;;;20.99;30.39;98767.00;5043997;28;1882;-78
2023/10/05 05:53:06;;;;;;;;;;;;;;;20.79;30.66;98759.13;5072546;28;1157;-78
2023/10/05 05:55:31;;;;;;;;;;;;;;;20.90;30.79;98761.81;5027622;28;1246;-78
2023/10/05 05:57:59;;;;;;;;;;;;;;;20.93;30.73;98765.81;5059899;28;1099;-78
2023/10/05 06:00:25;;;;;;;;;;;;;;;20.90;30.65;98764.66;5060901;28;1139;-78
2023/10/05 06:02:50;;;;;;;;;;;;;;;20.79;30.75;98770.44;5060184;28;948;-79
2023/10/05 06:05:16;;;;;;;;;;;;;;;20.80;31.09;98774.88;5060277;28;983;-79
2023/10/05 06:07:42;;;;;;;;;;;;;;;21.01;30.70;98775.84;5060292;28;915;-78
2023/10/05 06:10:14;;;;;;;;;;;;;;;20.86;31.01;98768.75;5060398;28;1022;-78
2023/10/05 06:12:43;;;;;;;;;;;;;;;20.93;30.87;98779.97;5061148;28;1973;-78
2023/10/05 06:15:18;;;;;;;;;;;;;;;20.85;30.98;98776.44;5060160;28;1014;-78
2023/10/05 06:17:46;;;;;;;;;;;;;;;20.60;31.04;98773.88;5044571;28;1022;-78
2023/10/05 06:20:15;;;;;;;;;;;;;;;20.77;30.76;98784.19;5043931;28;1142;-78
2023/10/05 06:22:49;;;;;;;;;;;;;;;20.92;30.60;98801.81;5044003;28;991;-78
2023/10/05 06:25:18;;;;;;;;;;;;;;;20.91;30.76;98796.56;5064751;28;1265;-78
2023/10/05 06:27:44;;;;;;;;;;;;;;;20.80;30.61;98800.31;5082263;28;836;-78
2023/10/05 06:30:10;;;;;;;;;;;;;;;20.86;30.72;98802.69;5080988;28;1111;-79
2023/10/05 06:32:36;;;;;;;;;;;;;;;20.62;31.06;98802.50;5063629;28;1910;-78
2023/10/05 06:35:03;;;;;;;;;;;;;;;20.92;30.51;98809.50;5080331;28;909;-78
2023/10/05 06:37:29;;;;;;;;;;;;;;;20.88;30.89;98811.53;5081227;28;902;-79
2023/10/05 06:39:54;;;;;;;;;;;;;;;21.10;30.59;98815.75;5081058;28;929;-78
2023/10/05 06:42:20;;;;;;;;;;;;;;;20.76;30.77;98810.88;5080874;28;985;-79
2023/10/05 06:44:46;;;;;;;;;;;;;;;20.99;30.37;98817.91;5063532;28;880;-78
2023/10/05 06:47:35;;;;;;;;;;;;;;;21.14;30.15;98829.84;5080835;28;990;-78
2023/10/05 06:50:00;;;;;;;;;;;;;;;20.87;30.56;98826.91;5083427;28;1332;-79
2023/10/05 06:52:25;;;;;;;;;;;;;;;20.69;31.18;98827.91;5080426;28;1980;-78
2023/10/05 06:54:51;;;;;;;;;;;;;;;21.07;30.58;98830.75;5063745;28;1531;-79
2023/10/05 06:57:17;;;;;;;;;;;;;;;20.95;30.39;98817.16;5064152;28;1214;-79
2023/10/05 06:59:42;;;;;;;;;;;;;;;20.81;30.61;98835.06;5063310;28;1162;-78
2023/10/05 07:02:08;;;;;;;;;;;;;;;21.17;30.25;98829.81;5080657;28;1223;-79
2023/10/05 07:04:33;;;;;;;;;;;;;;;21.03;30.33;98835.63;5098216;28;910;-78
2023/10/05 07:06:59;;;;;;;;;;;;;;;21.05;30.49;98833.19;5075967;28;1280;-78
2023/10/05 07:09:26;;;;;;;;;;;;;;;20.85;30.70;98835.03;5058813;28;901;-79
2023/10/05 07:11:52;;;;;;;;;;;;;;;20.78;30.80;98836.72;5075432;28;1909;-78
2023/10/05 07:14:19;;;;;;;;;;;;;;;20.99;30.65;98834.88;5075080;28;969;-79
2023/10/05 07:16:45;;;;;;;;;;;;;;;20.87;30.83;98838.22;5075367;28;904;-78
2023/10/05 07:19:11;;;;;;;;;;;;;;;20.77;30.73;98835.09;5075104;28;806;-78
2023/10/05 07:21:37;;;;;;;;;;;;;;;20.81;31.01;98838.69;5075240;28;793;-79
2023/10/05 07:24:04;;;;;;;;;;;;;;;20.79;30.86;98826.19;5058681;28;1218;-79
2023/10/05 07:26:29;;;;;;;;;;;;;;;20.89;30.50;98830.94;5041831;28;1092;-79
2023/10/05 07:28:55;;;;;;;;;;;;;;;21.05;30.33;98834.00;5018484;28;1140;-79
2023/10/05 07:31:22;;;;;;;;;;;;;;;20.90;30.69;98831.75;5018959;28;1930;-78
2023/10/05 07:33:48;;;;;;;;;;;;;;;20.90;30.61;98832.56;5034803;28;871;-78
2023/10/05 07:36:14;;;;;;;;;;;;;;;20.96;30.67;98835.72;5019000;28;896;-78
2023/10/05 07:38:40;;;;;;;;;;;;;;;20.96;30.72;98835.72;5003413;28;1239;-79
2023/10/05 07:41:07;;;;;;;;;;;;;;;20.67;31.06;98827.50;4997188;28;1237;-78
2023/10/05 07:43:33;;;;;;;;;;;;;;;20.81;31.22;98830.19;4996964;28;1210;-79
2023/10/05 07:46:00;;;;;;;;;;;;;;;20.73;31.04;98828.69;4981991;28;1261;-78
2023/10/05 07:48:26;;;;;;;;;;;;;;;21.07;30.56;98833.56;4993628;28;1235;-78
2023/10/05 07:50:51;;;;;;;;;;;;;;;20.72;31.12;98834.75;4987264;28;1910;-79
2023/10/05 07:53:17;;;;;;;;;;;;;;;20.90;31.16;98831.75;4959197;28;2006;-79
2023/10/05 07:55:42;;;;;;;;;;;;;;;20.99;30.87;98829.22;4974631;28;1214;-78
2023/10/05 07:58:08;;;;;;;;;;;;;;;20.90;31.05;98831.75;4967196;28;1250;-79
2023/10/05 08:00:33;;;;;;;;;;;;;;;20.74;31.23;98830.28;4975448;28;864;-79
2023/10/05 08:03:00;;;;;;;;;;;;;;;20.86;31.06;98836.63;4976070;28;1001;-79
2023/10/05 08:05:26;;;;;;;;;;;;;;;20.92;31.02;98834.94;4981076;28;902;-78
2023/10/05 08:07:51;;;;;;;;;;;;;;;21.10;30.77;98837.59;4998284;28;1306;-78
2023/10/05 08:10:18;;;;;;;;;;;;;;;21.00;30.77;98837.28;5014752;28;1225;-78
2023/10/05 08:12:44;;;;;;;;;;;;;;;20.75;31.13;98839.56;5014623;28;1903;-79
2023/10/05 08:15:12;;;;;;;;;;;;;;;21.08;30.54;98833.13;5016745;28;1281;-79
2023/10/05 08:17:38;;;;;;;;;;;;;;;20.90;31.03;98837.41;5015887;28;1162;-78
2023/10/05 08:20:05;;;;;;;;;;;;;;;20.80;30.94;98839.91;5025758;28;1257;-78
2023/10/05 08:22:30;;;;;;;;;;;;;;;21.02;30.92;98839.69;5042252;28;1244;-78
2023/10/05 08:24:57;;;;;;;;;;;;;;;20.66;31.26;98834.41;5082119;28;1398;-78
2023/10/05 08:27:24;;;;;;;;;;;;;;;21.10;30.43;98846.88;5096838;28;1204;-78
2023/10/05 08:29:50;;;;;;;;;;;;;;;20.88;30.98;98842.66;5096533;28;1264;-78
2023/10/05 08:32:16;;;;;;;;;;;;;;;21.16;30.30;98839.53;5088020;28;1909;-78
2023/10/05 08:34:44;;;;;;;;;;;;;;;20.86;31.07;98837.44;5078947;28;1723;-78
2023/10/05 08:37:11;;;;;;;;;;;;;;;20.78;31.18;98835.91;5061516;28;1246;-78
2023/10/05 08:39:37;;;;;;;;;;;;;;;21.07;30.84;98830.75;5051431;28;1280;-79
2023/10/05 08:42:06;;;;;;;;;;;;;;;21.17;30.82;98843.16;5054645;28;927;-78
2023/10/05 08:44:44;;;;;;;;;;;;;;;21.11;30.95;98845.66;5038021;28;987;-78
2023/10/05 08:47:12;;;;;;;;;;;;;;;21.36;30.45;98833.28;5069912;28;951;-78
2023/10/05 08:49:38;;;;;;;;;;;;;;;21.01;31.04;98833.22;5070560;28;954;-79
2023/10/05 08:52:13;;;;;;;;;;;;;;;21.02;30.98;98834.03;5053824;28;1894;-78
2023/10/05 08:54:39;;;;;;;;;;;;;;;21.12;30.75;98833.09;5053755;28;1093;-78
2023/10/05 08:57:10;;;;;;;;;;;;;;;20.93;31.29;98830.88;5058031;28;1229;-79
2023/10/05 08:59:40;;;;;;;;;;;;;;;21.36;30.45;98830.44;5073891;28;786;-78
2023/10/05 09:02:08;;;;;;;;;;;;;;;21.26;30.73;98832.16;5041058;28;789;-78
2023/10/05 09:04:47;;;;;;;;;;;;;;;20.95;31.15;98834.91;5074406;28;892;-78
2023/10/05 09:07:27;;;;;;;;;;;;;;;21.27;30.67;98845.88;5056349;28;707;-78
2023/10/05 09:09:54;;;;;;;;;;;;;;;21.09;30.68;98845.28;5040922;28;953;-78
2023/10/05 09:12:35;;;;;;;;;;;;;;;20.98;31.00;98844.56;5041890;28;1910;-78
2023/10/05 09:15:04;;;;;;;;;;;;;;;20.98;30.98;98844.56;5021342;28;1236;-79
2023/10/05 09:17:30;;;;;;;;;;;;;;;20.75;31.29;98837.53;5018389;28;1103;-78
2023/10/05 09:19:56;;;;;;;;;;;;;;;21.14;30.93;98841.16;5018350;28;1129;-78
2023/10/05 09:22:23;;;;;;;;;;;;;;;20.98;31.02;98839.72;5018938;28;1076;-78
2023/10/05 09:24:52;;;;;;;;;;;;;;;21.00;31.05;98836.50;5018366;28;975;-78
2023/10/05 09:27:19;;;;;;;;;;;;;;;21.12;31.09;98844.44;5018121;28;986;-78
2023/10/05 09:29:47;;;;;;;;;;;;;;;21.29;30.92;98843.41;5018029;28;972;-79
2023/10/05 09:32:22;;;;;;;;;;;;;;;21.28;30.84;98836.16;5018011;28;1910;-79
2023/10/05 09:34:51;;;;;;;;;;;;;;;21.21;30.92;98841.09;5017694;28;961;-78
2023/10/05 09:37:16;;;;;;;;;;;;;;;21.06;30.90;98841.25;5017986;28;1128;-78
2023/10/05 09:39:53;;;;;;;;;;;;;;;21.17;30.85;98840.34;5018271;28;943;-78
2023/10/05 09:42:25;;;;;;;;;;;;;;;21.28;30.73;98835.34;5021496;28;1519;-79
2023/10/05 09:44:51;;;;;;;;;;;;;;;20.96;31.21;98830.84;5037840;28;950;-79
2023/10/05 09:47:20;;;;;;;;;;;;;;;20.98;31.20;98836.09;5054934;28;1094;-79
2023/10/05 09:49:45;;;;;;;;;;;;;;;21.16;31.01;98828.22;5078328;28;909;-78
2023/10/05 09:52:11;;;;;;;;;;;;;;;21.15;30.79;98832.28;5061890;28;1973;-78
2023/10/05 09:54:37;;;;;;;;;;;;;;;21.27;30.63;98834.53;5079453;28;1022;-78
2023/10/05 09:57:10;;;;;;;;;;;;;;;21.34;30.52;98828.00;5078300;28;1226;-78
2023/10/05 09:59:41;;;;;;;;;;;;;;;21.03;31.47;98824.31;5046370;28;830;-78
2023/10/05 10:02:12;;;;;;;;;;;;;;;21.17;31.17;98829.81;5094754;28;762;-78
2023/10/05 10:04:38;;;;;;;;;;;;;;;20.95;31.36;98828.47;5028527;28;1196;-78
2023/10/05 10:07:09;;;;;;;;;;;;;;;20.88;31.63;98823.69;5060984;28;806;-78
2023/10/05 10:09:35;;;;;;;;;;;;;;;21.13;31.02;98814.91;5061690;28;758;-79
2023/10/05 10:12:00;;;;;;;;;;;;;;;21.25;31.17;98820.03;5060905;28;1906;-79
2023/10/05 10:14:26;;;;;;;;;;;;;;;21.24;30.90;98821.25;5061170;28;762;-78
2023/10/05 10:17:00;;;;;;;;;;;;;;;21.38;30.63;98822.31;5078750;28;1390;-78
2023/10/05 10:19:25;;;;;;;;;;;;;;;21.20;31.00;98812.00;5045047;28;829;-79
2023/10/05 10:21:57;;;;;;;;;;;;;;;21.21;31.19;98816.44;5061264;28;722;-78
2023/10/05 10:24:24;;;;;;;;;;;;;;;21.05;31.36;98807.72;5078236;28;850;-78
2023/10/05 10:26:56;;;;;;;;;;;;;;;21.15;31.09;98809.63;5061367;28;770;-78
2023/10/05 10:29:23;;;;;;;;;;;;;;;21.10;31.20;98804.44;5094182;28;813;-78
2023/10/05 10:32:07;;;;;;;;;;;;;;;21.28;30.73;98802.19;5060656;28;1901;-78
2023/10/05 10:34:49;;;;;;;;;;;;;;;21.39;30.59;98789.94;5078279;28;874;-78
2023/10/05 10:37:39;;;;;;;;;;;;;;;21.12;30.95;98787.84;5062474;28;850;-78
2023/10/05 10:42:53;;;;;;;;;;;;;;;21.12;31.01;98779.34;5021062;28;949;-77
2023/10/05 10:45:29;;;;;;;;;;;;;;;20.96;31.14;98770.66;5052698;28;949;-79
2023/10/05 10:47:55;;;;;;;;;;;;;;;20.95;31.03;98772.69;5037128;28;906;-78
2023/10/05 10:50:29;;;;;;;;;;;;;;;21.04;30.73;98775.00;5020020;28;1271;-78
2023/10/05 10:52:55;;;;;;;;;;;;;;;21.04;30.87;98758.03;5020519;28;1972;-78
2023/10/05 10:55:21;;;;;;;;;;;;;;;20.97;30.99;98763.75;5003433;28;906;-78
2023/10/05 10:57:47;;;;;;;;;;;;;;;20.96;30.86;98762.16;5003024;28;981;-78
2023/10/05 11:02:57;;;;;;;;;;;;;;;20.99;31.07;98759.31;5019489;28;1124;-78
2023/10/05 11:05:41;;;;;;;;;;;;;;;21.02;30.96;98749.94;5012692;28;899;-78
2023/10/05 11:08:09;;;;;;;;;;;;;;;20.92;31.23;98755.75;4996557;28;994;-78
2023/10/05 11:10:35;;;;;;;;;;;;;;;20.86;31.05;98748.94;4996437;28;1081;-79
2023/10/05 11:13:14;;;;;;;;;;;;;;;20.90;31.33;98759.00;4980203;28;1953;-79
2023/10/05 11:15:49;;;;;;;;;;;;;;;20.96;31.13;98746.00;5011061;28;967;-78
2023/10/05 11:18:18;;;;;;;;;;;;;;;21.11;30.67;98746.63;5014451;28;1134;-78
2023/10/05 11:20:52;;;;;;;;;;;;;;;21.14;30.53;98742.94;5000098;28;1213;-79
2023/10/05 11:23:23;;;;;;;;;;;;;;;21.18;30.58;98738.03;5000213;28;1213;-78
2023/10/05 11:25:51;;;;;;;;;;;;;;;21.02;30.94;98737.84;5016646;28;1332;-79
2023/10/05 11:28:24;;;;;;;;;;;;;;;21.03;30.75;98734.56;5031796;28;878;-78
2023/10/05 11:30:49;;;;;;;;;;;;;;;21.14;30.52;98725.97;4976599;28;1906;-78
2023/10/05 11:33:15;;;;;;;;;;;;;;;21.14;30.61;98723.13;4976470;28;1015;-79
2023/10/05 11:35:48;;;;;;;;;;;;;;;21.20;30.51;98729.94;4969491;28;948;-79
2023/10/05 11:38:15;;;;;;;;;;;;;;;21.09;30.78;98729.28;5015424;28;918;-78
2023/10/05 11:40:49;;;;;;;;;;;;;;;21.16;30.67;98723.50;5032150;28;818;-78
2023/10/05 11:43:16;;;;;;;;;;;;;;;20.86;31.08;98729.94;5030042;28;939;-78
2023/10/05 11:46:02;;;;;;;;;;;;;;;21.14;30.69;98717.47;5031582;28;872;-78
2023/10/05 11:48:35;;;;;;;;;;;;;;;21.10;30.81;98716.72;5035509;28;1010;-78
2023/10/05 11:51:09;;;;;;;;;;;;;;;20.63;31.50;98719.31;5019363;28;1906;-78
2023/10/05 11:53:35;;;;;;;;;;;;;;;20.79;31.33;98713.88;5044044;28;1024;-78
2023/10/05 11:56:01;;;;;;;;;;;;;;;21.01;30.73;98707.94;5022383;28;1193;-78
2023/10/05 11:58:26;;;;;;;;;;;;;;;20.94;31.02;98703.19;5037908;28;945;-78
2023/10/05 12:00:52;;;;;;;;;;;;;;;21.20;30.52;98709.31;5038650;28;1145;-78
2023/10/05 12:03:17;;;;;;;;;;;;;;;21.19;30.37;98702.84;5038413;28;916;-78
2023/10/05 12:05:43;;;;;;;;;;;;;;;21.01;30.63;98696.63;5055301;28;993;-78
2023/10/05 12:08:12;;;;;;;;;;;;;;;21.52;29.82;98703.22;5060778;28;1254;-78
2023/10/05 12:10:38;;;;;;;;;;;;;;;21.34;30.22;98700.63;5058211;28;1304;-78
2023/10/05 12:13:03;;;;;;;;;;;;;;;21.13;30.61;98700.91;5091049;28;1910;-78
2023/10/05 12:15:31;;;;;;;;;;;;;;;21.08;30.70;98696.50;5072981;28;943;-78
2023/10/05 12:17:57;;;;;;;;;;;;;;;20.99;30.77;98699.09;5072396;28;900;-78
2023/10/05 12:20:22;;;;;;;;;;;;;;;21.08;30.58;98691.66;5057228;28;894;-78
2023/10/05 12:22:49;;;;;;;;;;;;;;;21.01;30.63;98702.28;5055833;28;927;-78
2023/10/05 12:25:15;;;;;;;;;;;;;;;21.23;30.22;98697.94;5072683;28;990;-79
2023/10/05 12:27:41;;;;;;;;;;;;;;;20.95;30.72;98698.31;5055878;28;1173;-78
2023/10/05 12:30:10;;;;;;;;;;;;;;;21.11;30.59;98690.03;5058357;28;1117;-78
2023/10/05 12:32:39;;;;;;;;;;;;;;;21.22;30.30;98696.31;5060088;28;1906;-78
2023/10/05 12:35:06;;;;;;;;;;;;;;;21.19;30.38;98691.53;5076062;28;923;-79
2023/10/05 12:37:32;;;;;;;;;;;;;;;21.08;30.75;98690.84;5076673;28;886;-78
2023/10/05 12:40:05;;;;;;;;;;;;;;;21.05;30.62;98691.72;5060818;28;925;-78
2023/10/05 12:42:30;;;;;;;;;;;;;;;20.85;31.08;98687.94;5060055;28;1114;-78
2023/10/05 12:44:56;;;;;;;;;;;;;;;21.08;30.53;98688.81;5059596;28;1452;-78
2023/10/05 12:47:22;;;;;;;;;;;;;;;20.97;30.46;98687.38;5079093;28;909;-78
2023/10/05 12:49:48;;;;;;;;;;;;;;;20.97;30.60;98695.88;5045261;28;1241;-78
2023/10/05 12:52:14;;;;;;;;;;;;;;;21.21;30.21;98680.59;5062234;28;1971;-78
2023/10/05 12:54:42;;;;;;;;;;;;;;;20.91;30.85;98680.59;5028905;28;1248;-78
2023/10/05 12:57:12;;;;;;;;;;;;;;;20.88;30.84;98684.25;5062670;28;901;-79
2023/10/05 12:59:37;;;;;;;;;;;;;;;20.78;31.04;98684.00;5061555;28;972;-79
2023/10/05 13:02:13;;;;;;;;;;;;;;;20.92;30.87;98679.34;5078776;28;968;-78
2023/10/05 13:04:38;;;;;;;;;;;;;;;21.00;30.94;98678.06;5046504;28;942;-78
2023/10/05 13:07:04;;;;;;;;;;;;;;;21.06;30.82;98684.84;5061923;28;1190;-78
2023/10/05 13:09:32;;;;;;;;;;;;;;;20.84;31.01;98689.19;5061186;28;1007;-78
2023/10/05 13:11:58;;;;;;;;;;;;;;;20.98;30.73;98677.66;5045166;28;1914;-78
2023/10/05 13:14:24;;;;;;;;;;;;;;;21.27;30.40;98676.03;5062056;28;946;-78
2023/10/05 13:16:52;;;;;;;;;;;;;;;21.35;30.19;98681.63;5078123;28;1042;-78
2023/10/05 13:19:18;;;;;;;;;;;;;;;21.39;30.04;98694.50;5061776;28;910;-78
2023/10/05 13:21:45;;;;;;;;;;;;;;;21.11;30.50;98678.69;5059036;28;986;-78
2023/10/05 13:24:11;;;;;;;;;;;;;;;21.15;30.58;98673.81;5074572;28;965;-78
2023/10/05 13:26:37;;;;;;;;;;;;;;;20.80;31.03;98675.88;5078209;28;937;-78
2023/10/05 13:29:07;;;;;;;;;;;;;;;20.97;30.48;98667.56;5044392;28;948;-78
2023/10/05 13:31:32;;;;;;;;;;;;;;;21.11;30.60;98667.38;5077743;28;1969;-78